Terminal Aerodrome Forecast
Issued by NWS

Home | Current Version | Previous Version | Text Only | Print | Product List | Glossary On
Versions: 1 2 3 4 5 6 7 8 9 10 11 12 13 14
000
FTUS43 KGRB 202320
TAFRHI
TAF
KRHI 202320Z 2100/2124 VRB03KT P6SM BKN090
     FM210500 00000KT 4SM BR SCT009 BKN070
      TEMPO 2109/2113 1SM BR BKN009
     FM211800 05005KT P6SM SCT010 BKN070
     FM212100 06004KT P6SM BKN010 OVC040=

USA.gov is the U.S. government's official web portal to all federal, state and local government web resources and services.